sensor_id;sensor_type;location;lat;lon;timestamp;P1;durP1;ratioP1;P2;durP2;ratioP2
7985;SDS011;4038;42.612;23.066;2023-05-07T00:00:22;28.83;;;26.53;;
7985;SDS011;4038;42.612;23.066;2023-05-07T00:02:47;27.90;;;25.70;;
7985;SDS011;4038;42.612;23.066;2023-05-07T00:05:13;27.07;;;24.97;;
7985;SDS011;4038;42.612;23.066;2023-05-07T00:07:39;26.93;;;24.93;;
7985;SDS011;4038;42.612;23.066;2023-05-07T00:10:05;27.88;;;25.77;;
7985;SDS011;4038;42.612;23.066;2023-05-07T00:12:31;27.10;;;25.20;;
7985;SDS011;4038;42.612;23.066;2023-05-07T00:14:58;27.63;;;25.23;;
7985;SDS011;4038;42.612;23.066;2023-05-07T00:17:27;28.33;;;25.53;;
7985;SDS011;4038;42.612;23.066;2023-05-07T00:19:53;26.73;;;24.50;;
7985;SDS011;4038;42.612;23.066;2023-05-07T00:22:18;26.57;;;24.50;;
7985;SDS011;4038;42.612;23.066;2023-05-07T00:24:44;25.83;;;23.73;;
7985;SDS011;4038;42.612;23.066;2023-05-07T00:27:09;27.90;;;25.60;;
7985;SDS011;4038;42.612;23.066;2023-05-07T00:29:34;26.47;;;24.47;;
7985;SDS011;4038;42.612;23.066;2023-05-07T00:32:01;26.77;;;24.47;;
7985;SDS011;4038;42.612;23.066;2023-05-07T00:34:26;26.53;;;24.10;;
7985;SDS011;4038;42.612;23.066;2023-05-07T00:36:52;28.50;;;25.57;;
7985;SDS011;4038;42.612;23.066;2023-05-07T00:39:18;45.45;;;29.00;;
7985;SDS011;4038;42.612;23.066;2023-05-07T00:41:43;37.73;;;27.13;;
7985;SDS011;4038;42.612;23.066;2023-05-07T00:44:08;29.73;;;26.20;;
7985;SDS011;4038;42.612;23.066;2023-05-07T00:46:34;45.07;;;28.83;;
7985;SDS011;4038;42.612;23.066;2023-05-07T00:48:59;31.10;;;24.77;;
7985;SDS011;4038;42.612;23.066;2023-05-07T00:51:25;35.90;;;27.48;;
7985;SDS011;4038;42.612;23.066;2023-05-07T00:53:52;28.08;;;25.58;;
7985;SDS011;4038;42.612;23.066;2023-05-07T00:56:18;27.35;;;25.13;;
7985;SDS011;4038;42.612;23.066;2023-05-07T00:58:46;26.25;;;24.15;;
7985;SDS011;4038;42.612;23.066;2023-05-07T01:01:12;27.08;;;24.48;;
7985;SDS011;4038;42.612;23.066;2023-05-07T01:03:37;27.90;;;25.63;;
7985;SDS011;4038;42.612;23.066;2023-05-07T01:06:03;28.87;;;26.47;;
7985;SDS011;4038;42.612;23.066;2023-05-07T01:08:29;27.67;;;25.48;;
7985;SDS011;4038;42.612;23.066;2023-05-07T01:10:56;25.90;;;23.83;;
7985;SDS011;4038;42.612;23.066;2023-05-07T01:13:22;26.53;;;24.37;;
7985;SDS011;4038;42.612;23.066;2023-05-07T01:15:49;26.37;;;24.37;;
7985;SDS011;4038;42.612;23.066;2023-05-07T01:18:14;27.43;;;24.93;;
7985;SDS011;4038;42.612;23.066;2023-05-07T01:20:40;29.97;;;26.83;;
7985;SDS011;4038;42.612;23.066;2023-05-07T01:23:07;31.00;;;28.10;;
7985;SDS011;4038;42.612;23.066;2023-05-07T01:25:32;31.17;;;28.37;;
7985;SDS011;4038;42.612;23.066;2023-05-07T01:27:58;32.00;;;28.73;;
7985;SDS011;4038;42.612;23.066;2023-05-07T01:30:26;31.73;;;28.50;;
7985;SDS011;4038;42.612;23.066;2023-05-07T01:32:53;30.60;;;27.43;;
7985;SDS011;4038;42.612;23.066;2023-05-07T01:35:26;28.60;;;25.83;;
7985;SDS011;4038;42.612;23.066;2023-05-07T01:37:55;29.87;;;27.07;;
7985;SDS011;4038;42.612;23.066;2023-05-07T01:40:22;29.03;;;26.20;;
7985;SDS011;4038;42.612;23.066;2023-05-07T01:42:49;27.20;;;24.70;;
7985;SDS011;4038;42.612;23.066;2023-05-07T01:45:15;27.43;;;24.90;;
7985;SDS011;4038;42.612;23.066;2023-05-07T01:47:41;27.77;;;25.37;;
7985;SDS011;4038;42.612;23.066;2023-05-07T01:50:07;26.80;;;24.47;;
7985;SDS011;4038;42.612;23.066;2023-05-07T01:52:35;25.27;;;23.17;;
7985;SDS011;4038;42.612;23.066;2023-05-07T01:55:02;27.13;;;24.67;;
7985;SDS011;4038;42.612;23.066;2023-05-07T01:57:28;26.37;;;24.03;;
7985;SDS011;4038;42.612;23.066;2023-05-07T01:59:53;27.57;;;25.27;;
7985;SDS011;4038;42.612;23.066;2023-05-07T02:02:18;26.27;;;24.27;;
7985;SDS011;4038;42.612;23.066;2023-05-07T02:04:44;26.83;;;24.40;;
7985;SDS011;4038;42.612;23.066;2023-05-07T02:07:09;26.87;;;24.30;;
7985;SDS011;4038;42.612;23.066;2023-05-07T02:09:35;26.17;;;24.07;;
7985;SDS011;4038;42.612;23.066;2023-05-07T02:12:00;27.37;;;25.03;;
7985;SDS011;4038;42.612;23.066;2023-05-07T02:14:26;26.90;;;24.80;;
7985;SDS011;4038;42.612;23.066;2023-05-07T02:16:51;25.27;;;23.47;;
7985;SDS011;4038;42.612;23.066;2023-05-07T02:19:17;25.53;;;23.43;;
7985;SDS011;4038;42.612;23.066;2023-05-07T02:21:43;26.13;;;23.90;;
7985;SDS011;4038;42.612;23.066;2023-05-07T02:24:08;26.67;;;24.20;;
7985;SDS011;4038;42.612;23.066;2023-05-07T02:26:34;25.77;;;23.87;;
7985;SDS011;4038;42.612;23.066;2023-05-07T02:28:59;26.30;;;23.90;;
7985;SDS011;4038;42.612;23.066;2023-05-07T02:31:25;26.73;;;24.50;;
7985;SDS011;4038;42.612;23.066;2023-05-07T02:33:50;26.23;;;24.13;;
7985;SDS011;4038;42.612;23.066;2023-05-07T02:36:15;26.57;;;24.20;;
7985;SDS011;4038;42.612;23.066;2023-05-07T02:38:41;26.58;;;24.52;;
7985;SDS011;4038;42.612;23.066;2023-05-07T02:41:06;25.90;;;23.67;;
7985;SDS011;4038;42.612;23.066;2023-05-07T02:43:32;26.27;;;24.00;;
7985;SDS011;4038;42.612;23.066;2023-05-07T02:46:16;27.50;;;24.90;;
7985;SDS011;4038;42.612;23.066;2023-05-07T02:48:41;26.53;;;24.40;;
7985;SDS011;4038;42.612;23.066;2023-05-07T02:51:06;25.20;;;23.30;;
7985;SDS011;4038;42.612;23.066;2023-05-07T02:53:32;26.27;;;24.17;;
7985;SDS011;4038;42.612;23.066;2023-05-07T02:55:59;26.70;;;23.87;;
7985;SDS011;4038;42.612;23.066;2023-05-07T02:58:25;27.40;;;25.20;;
7985;SDS011;4038;42.612;23.066;2023-05-07T03:00:51;28.07;;;25.77;;
7985;SDS011;4038;42.612;23.066;2023-05-07T03:03:16;27.23;;;24.93;;
7985;SDS011;4038;42.612;23.066;2023-05-07T03:05:42;28.10;;;25.70;;
7985;SDS011;4038;42.612;23.066;2023-05-07T03:08:08;26.77;;;24.67;;
7985;SDS011;4038;42.612;23.066;2023-05-07T03:10:33;27.77;;;25.47;;
7985;SDS011;4038;42.612;23.066;2023-05-07T03:12:59;29.73;;;26.67;;
7985;SDS011;4038;42.612;23.066;2023-05-07T03:15:24;28.27;;;25.87;;
7985;SDS011;4038;42.612;23.066;2023-05-07T03:17:50;26.77;;;24.67;;
7985;SDS011;4038;42.612;23.066;2023-05-07T03:20:15;26.83;;;24.63;;
7985;SDS011;4038;42.612;23.066;2023-05-07T03:22:41;27.37;;;25.03;;
7985;SDS011;4038;42.612;23.066;2023-05-07T03:25:06;27.57;;;24.87;;
7985;SDS011;4038;42.612;23.066;2023-05-07T03:27:33;26.93;;;24.67;;
7985;SDS011;4038;42.612;23.066;2023-05-07T03:29:59;25.73;;;23.77;;
7985;SDS011;4038;42.612;23.066;2023-05-07T03:32:25;26.63;;;24.43;;
7985;SDS011;4038;42.612;23.066;2023-05-07T03:34:50;26.40;;;23.73;;
7985;SDS011;4038;42.612;23.066;2023-05-07T03:37:16;26.23;;;23.83;;
7985;SDS011;4038;42.612;23.066;2023-05-07T03:39:42;25.80;;;23.70;;
7985;SDS011;4038;42.612;23.066;2023-05-07T03:42:07;24.93;;;23.17;;
7985;SDS011;4038;42.612;23.066;2023-05-07T03:44:32;24.83;;;22.93;;
7985;SDS011;4038;42.612;23.066;2023-05-07T03:46:58;25.70;;;23.37;;
7985;SDS011;4038;42.612;23.066;2023-05-07T03:49:23;25.67;;;23.73;;
7985;SDS011;4038;42.612;23.066;2023-05-07T03:51:48;25.10;;;23.23;;
7985;SDS011;4038;42.612;23.066;2023-05-07T03:54:14;26.17;;;23.87;;
7985;SDS011;4038;42.612;23.066;2023-05-07T03:56:39;26.90;;;24.80;;
7985;SDS011;4038;42.612;23.066;2023-05-07T03:59:05;25.93;;;23.93;;
7985;SDS011;4038;42.612;23.066;2023-05-07T04:01:30;26.77;;;24.87;;
7985;SDS011;4038;42.612;23.066;2023-05-07T04:03:56;24.87;;;22.97;;
7985;SDS011;4038;42.612;23.066;2023-05-07T04:06:21;25.37;;;23.37;;
7985;SDS011;4038;42.612;23.066;2023-05-07T04:08:47;25.37;;;23.47;;
7985;SDS011;4038;42.612;23.066;2023-05-07T04:11:12;25.70;;;23.70;;
7985;SDS011;4038;42.612;23.066;2023-05-07T04:13:37;26.33;;;24.37;;
7985;SDS011;4038;42.612;23.066;2023-05-07T04:16:03;25.27;;;23.47;;
7985;SDS011;4038;42.612;23.066;2023-05-07T04:18:29;25.83;;;24.03;;
7985;SDS011;4038;42.612;23.066;2023-05-07T04:20:55;26.70;;;24.63;;
7985;SDS011;4038;42.612;23.066;2023-05-07T04:23:20;26.40;;;24.37;;
7985;SDS011;4038;42.612;23.066;2023-05-07T04:25:46;25.93;;;23.87;;
7985;SDS011;4038;42.612;23.066;2023-05-07T04:28:11;26.00;;;24.00;;
7985;SDS011;4038;42.612;23.066;2023-05-07T04:30:37;25.60;;;23.67;;
7985;SDS011;4038;42.612;23.066;2023-05-07T04:33:03;26.00;;;24.13;;
7985;SDS011;4038;42.612;23.066;2023-05-07T04:35:28;24.37;;;22.47;;
7985;SDS011;4038;42.612;23.066;2023-05-07T04:37:53;24.73;;;22.83;;
7985;SDS011;4038;42.612;23.066;2023-05-07T04:40:19;25.90;;;23.90;;
7985;SDS011;4038;42.612;23.066;2023-05-07T04:42:45;25.97;;;23.70;;
7985;SDS011;4038;42.612;23.066;2023-05-07T04:45:10;25.60;;;23.50;;
7985;SDS011;4038;42.612;23.066;2023-05-07T04:47:37;25.20;;;23.10;;
7985;SDS011;4038;42.612;23.066;2023-05-07T04:50:02;25.17;;;23.30;;
7985;SDS011;4038;42.612;23.066;2023-05-07T04:52:28;25.40;;;23.30;;
7985;SDS011;4038;42.612;23.066;2023-05-07T04:54:53;25.00;;;23.10;;
7985;SDS011;4038;42.612;23.066;2023-05-07T04:57:19;24.15;;;22.27;;
7985;SDS011;4038;42.612;23.066;2023-05-07T04:59:44;24.73;;;22.73;;
7985;SDS011;4038;42.612;23.066;2023-05-07T05:02:10;25.80;;;23.92;;
7985;SDS011;4038;42.612;23.066;2023-05-07T05:04:36;25.27;;;23.17;;
7985;SDS011;4038;42.612;23.066;2023-05-07T05:07:02;24.60;;;22.70;;
7985;SDS011;4038;42.612;23.066;2023-05-07T05:09:31;25.05;;;22.70;;
7985;SDS011;4038;42.612;23.066;2023-05-07T05:11:56;24.77;;;22.48;;
7985;SDS011;4038;42.612;23.066;2023-05-07T05:14:22;26.50;;;24.27;;
7985;SDS011;4038;42.612;23.066;2023-05-07T05:16:47;26.75;;;24.15;;
7985;SDS011;4038;42.612;23.066;2023-05-07T05:19:12;25.92;;;23.70;;
7985;SDS011;4038;42.612;23.066;2023-05-07T05:21:38;26.48;;;23.77;;
7985;SDS011;4038;42.612;23.066;2023-05-07T05:24:03;27.40;;;24.60;;
7985;SDS011;4038;42.612;23.066;2023-05-07T05:26:29;27.15;;;24.48;;
7985;SDS011;4038;42.612;23.066;2023-05-07T05:28:54;27.50;;;24.85;;
7985;SDS011;4038;42.612;23.066;2023-05-07T05:31:19;26.90;;;24.40;;
7985;SDS011;4038;42.612;23.066;2023-05-07T05:33:45;27.77;;;25.15;;
7985;SDS011;4038;42.612;23.066;2023-05-07T05:36:10;28.02;;;23.80;;
7985;SDS011;4038;42.612;23.066;2023-05-07T05:38:37;27.10;;;24.50;;
7985;SDS011;4038;42.612;23.066;2023-05-07T05:41:03;34.85;;;25.15;;
7985;SDS011;4038;42.612;23.066;2023-05-07T05:43:28;26.40;;;24.35;;
7985;SDS011;4038;42.612;23.066;2023-05-07T05:45:55;27.23;;;24.50;;
7985;SDS011;4038;42.612;23.066;2023-05-07T05:48:20;27.40;;;24.75;;
7985;SDS011;4038;42.612;23.066;2023-05-07T05:50:46;26.73;;;24.60;;
7985;SDS011;4038;42.612;23.066;2023-05-07T05:53:11;27.83;;;25.15;;
7985;SDS011;4038;42.612;23.066;2023-05-07T05:55:36;27.00;;;24.48;;
7985;SDS011;4038;42.612;23.066;2023-05-07T05:58:02;27.27;;;24.70;;
7985;SDS011;4038;42.612;23.066;2023-05-07T06:00:29;27.35;;;24.85;;
7985;SDS011;4038;42.612;23.066;2023-05-07T06:02:54;27.08;;;24.75;;
7985;SDS011;4038;42.612;23.066;2023-05-07T06:05:20;28.52;;;25.65;;
7985;SDS011;4038;42.612;23.066;2023-05-07T06:07:45;26.98;;;24.75;;
7985;SDS011;4038;42.612;23.066;2023-05-07T06:10:11;28.23;;;25.50;;
7985;SDS011;4038;42.612;23.066;2023-05-07T06:12:36;28.30;;;25.60;;
7985;SDS011;4038;42.612;23.066;2023-05-07T06:15:02;27.13;;;24.92;;
7985;SDS011;4038;42.612;23.066;2023-05-07T06:17:28;28.02;;;25.70;;
7985;SDS011;4038;42.612;23.066;2023-05-07T06:19:53;27.77;;;25.38;;
7985;SDS011;4038;42.612;23.066;2023-05-07T06:22:18;27.80;;;25.52;;
7985;SDS011;4038;42.612;23.066;2023-05-07T06:24:44;28.25;;;25.75;;
7985;SDS011;4038;42.612;23.066;2023-05-07T06:27:09;27.27;;;25.05;;
7985;SDS011;4038;42.612;23.066;2023-05-07T06:29:35;25.88;;;23.63;;
7985;SDS011;4038;42.612;23.066;2023-05-07T06:32:07;26.27;;;24.08;;
7985;SDS011;4038;42.612;23.066;2023-05-07T06:34:36;26.67;;;24.33;;
7985;SDS011;4038;42.612;23.066;2023-05-07T06:37:02;25.13;;;23.23;;
7985;SDS011;4038;42.612;23.066;2023-05-07T06:39:27;25.80;;;23.77;;
7985;SDS011;4038;42.612;23.066;2023-05-07T06:41:53;26.35;;;24.33;;
7985;SDS011;4038;42.612;23.066;2023-05-07T06:44:18;25.17;;;22.98;;
7985;SDS011;4038;42.612;23.066;2023-05-07T06:46:43;26.00;;;23.70;;
7985;SDS011;4038;42.612;23.066;2023-05-07T06:49:10;24.73;;;22.65;;
7985;SDS011;4038;42.612;23.066;2023-05-07T06:51:35;25.05;;;23.00;;
7985;SDS011;4038;42.612;23.066;2023-05-07T06:54:01;23.98;;;22.00;;
7985;SDS011;4038;42.612;23.066;2023-05-07T06:56:26;25.70;;;23.20;;
7985;SDS011;4038;42.612;23.066;2023-05-07T06:58:51;24.83;;;22.85;;
7985;SDS011;4038;42.612;23.066;2023-05-07T07:01:17;24.67;;;22.60;;
7985;SDS011;4038;42.612;23.066;2023-05-07T07:03:42;24.60;;;22.70;;
7985;SDS011;4038;42.612;23.066;2023-05-07T07:06:08;23.15;;;21.40;;
7985;SDS011;4038;42.612;23.066;2023-05-07T07:08:33;23.20;;;20.98;;
7985;SDS011;4038;42.612;23.066;2023-05-07T07:10:59;24.42;;;22.42;;
7985;SDS011;4038;42.612;23.066;2023-05-07T07:13:25;24.08;;;22.23;;
7985;SDS011;4038;42.612;23.066;2023-05-07T07:15:51;24.92;;;22.58;;
7985;SDS011;4038;42.612;23.066;2023-05-07T07:18:16;24.85;;;22.83;;
7985;SDS011;4038;42.612;23.066;2023-05-07T07:20:42;25.35;;;23.45;;
7985;SDS011;4038;42.612;23.066;2023-05-07T07:23:09;24.73;;;22.90;;
7985;SDS011;4038;42.612;23.066;2023-05-07T07:25:34;24.38;;;22.55;;
7985;SDS011;4038;42.612;23.066;2023-05-07T07:28:00;25.15;;;23.23;;
7985;SDS011;4038;42.612;23.066;2023-05-07T07:30:26;25.05;;;22.65;;
7985;SDS011;4038;42.612;23.066;2023-05-07T07:32:51;24.63;;;22.45;;
7985;SDS011;4038;42.612;23.066;2023-05-07T07:35:17;24.17;;;22.27;;
7985;SDS011;4038;42.612;23.066;2023-05-07T07:37:43;23.70;;;21.90;;
7985;SDS011;4038;42.612;23.066;2023-05-07T07:40:08;23.67;;;21.90;;
7985;SDS011;4038;42.612;23.066;2023-05-07T07:42:34;23.55;;;21.63;;
7985;SDS011;4038;42.612;23.066;2023-05-07T07:45:00;24.00;;;21.83;;
7985;SDS011;4038;42.612;23.066;2023-05-07T07:47:25;28.77;;;25.17;;
7985;SDS011;4038;42.612;23.066;2023-05-07T07:49:50;24.65;;;22.38;;
7985;SDS011;4038;42.612;23.066;2023-05-07T07:52:16;24.90;;;23.00;;
7985;SDS011;4038;42.612;23.066;2023-05-07T07:54:44;23.33;;;21.60;;
7985;SDS011;4038;42.612;23.066;2023-05-07T07:57:10;23.17;;;21.48;;
7985;SDS011;4038;42.612;23.066;2023-05-07T07:59:35;24.48;;;22.67;;
7985;SDS011;4038;42.612;23.066;2023-05-07T08:02:00;25.88;;;24.00;;
7985;SDS011;4038;42.612;23.066;2023-05-07T08:04:26;24.13;;;22.20;;
7985;SDS011;4038;42.612;23.066;2023-05-07T08:06:51;23.58;;;21.63;;
7985;SDS011;4038;42.612;23.066;2023-05-07T08:09:17;24.63;;;22.83;;
7985;SDS011;4038;42.612;23.066;2023-05-07T08:11:42;23.70;;;21.88;;
7985;SDS011;4038;42.612;23.066;2023-05-07T08:14:07;23.55;;;21.55;;
7985;SDS011;4038;42.612;23.066;2023-05-07T08:16:33;23.48;;;21.58;;
7985;SDS011;4038;42.612;23.066;2023-05-07T08:18:58;23.38;;;21.27;;
7985;SDS011;4038;42.612;23.066;2023-05-07T08:21:24;24.05;;;22.15;;
7985;SDS011;4038;42.612;23.066;2023-05-07T08:23:49;24.52;;;22.63;;
7985;SDS011;4038;42.612;23.066;2023-05-07T08:26:14;24.95;;;23.00;;
7985;SDS011;4038;42.612;23.066;2023-05-07T08:28:40;24.38;;;22.27;;
7985;SDS011;4038;42.612;23.066;2023-05-07T08:31:05;24.17;;;22.17;;
7985;SDS011;4038;42.612;23.066;2023-05-07T08:33:31;23.15;;;21.45;;
7985;SDS011;4038;42.612;23.066;2023-05-07T08:35:56;23.77;;;21.55;;
7985;SDS011;4038;42.612;23.066;2023-05-07T08:38:22;23.23;;;21.35;;
7985;SDS011;4038;42.612;23.066;2023-05-07T08:40:47;23.35;;;21.33;;
7985;SDS011;4038;42.612;23.066;2023-05-07T08:43:13;23.75;;;21.73;;
7985;SDS011;4038;42.612;23.066;2023-05-07T08:45:40;23.67;;;21.40;;
7985;SDS011;4038;42.612;23.066;2023-05-07T08:48:08;24.60;;;22.73;;
7985;SDS011;4038;42.612;23.066;2023-05-07T08:50:39;23.20;;;21.40;;
7985;SDS011;4038;42.612;23.066;2023-05-07T08:53:04;23.73;;;21.45;;
7985;SDS011;4038;42.612;23.066;2023-05-07T08:55:30;22.85;;;21.17;;
7985;SDS011;4038;42.612;23.066;2023-05-07T08:57:56;23.90;;;22.20;;
7985;SDS011;4038;42.612;23.066;2023-05-07T09:00:22;24.20;;;22.50;;
7985;SDS011;4038;42.612;23.066;2023-05-07T09:02:47;23.15;;;21.13;;
7985;SDS011;4038;42.612;23.066;2023-05-07T09:05:13;23.67;;;21.60;;
7985;SDS011;4038;42.612;23.066;2023-05-07T09:07:39;22.63;;;20.73;;
7985;SDS011;4038;42.612;23.066;2023-05-07T09:10:04;22.40;;;20.70;;
7985;SDS011;4038;42.612;23.066;2023-05-07T09:12:31;22.42;;;20.70;;
7985;SDS011;4038;42.612;23.066;2023-05-07T09:14:56;24.30;;;22.48;;
7985;SDS011;4038;42.612;23.066;2023-05-07T09:17:21;23.42;;;21.58;;
7985;SDS011;4038;42.612;23.066;2023-05-07T09:19:47;23.85;;;22.17;;
7985;SDS011;4038;42.612;23.066;2023-05-07T09:22:12;23.75;;;21.88;;
7985;SDS011;4038;42.612;23.066;2023-05-07T09:24:38;23.30;;;21.70;;
7985;SDS011;4038;42.612;23.066;2023-05-07T09:27:04;24.45;;;22.45;;
7985;SDS011;4038;42.612;23.066;2023-05-07T09:29:30;22.75;;;21.13;;
7985;SDS011;4038;42.612;23.066;2023-05-07T09:32:09;25.60;;;23.63;;
7985;SDS011;4038;42.612;23.066;2023-05-07T09:34:35;23.25;;;21.42;;
7985;SDS011;4038;42.612;23.066;2023-05-07T09:37:01;23.33;;;21.60;;
7985;SDS011;4038;42.612;23.066;2023-05-07T09:39:40;22.13;;;20.52;;
7985;SDS011;4038;42.612;23.066;2023-05-07T09:42:09;23.05;;;21.33;;
7985;SDS011;4038;42.612;23.066;2023-05-07T09:44:36;21.75;;;20.25;;
7985;SDS011;4038;42.612;23.066;2023-05-07T09:47:04;22.98;;;21.25;;
7985;SDS011;4038;42.612;23.066;2023-05-07T09:49:33;22.90;;;21.23;;
7985;SDS011;4038;42.612;23.066;2023-05-07T09:52:03;23.10;;;21.60;;
7985;SDS011;4038;42.612;23.066;2023-05-07T09:54:35;23.92;;;22.23;;
7985;SDS011;4038;42.612;23.066;2023-05-07T09:57:03;23.65;;;21.90;;
7985;SDS011;4038;42.612;23.066;2023-05-07T09:59:30;22.58;;;20.98;;
7985;SDS011;4038;42.612;23.066;2023-05-07T10:01:58;23.30;;;21.90;;
7985;SDS011;4038;42.612;23.066;2023-05-07T10:04:25;23.98;;;22.25;;
7985;SDS011;4038;42.612;23.066;2023-05-07T10:06:51;23.48;;;22.08;;
7985;SDS011;4038;42.612;23.066;2023-05-07T10:09:18;22.23;;;20.60;;
7985;SDS011;4038;42.612;23.066;2023-05-07T10:11:44;23.48;;;21.88;;
7985;SDS011;4038;42.612;23.066;2023-05-07T10:14:11;25.63;;;23.85;;
7985;SDS011;4038;42.612;23.066;2023-05-07T10:16:37;23.58;;;21.52;;
7985;SDS011;4038;42.612;23.066;2023-05-07T10:19:03;23.15;;;21.38;;
7985;SDS011;4038;42.612;23.066;2023-05-07T10:21:34;25.08;;;23.48;;
7985;SDS011;4038;42.612;23.066;2023-05-07T10:24:13;25.52;;;23.70;;
7985;SDS011;4038;42.612;23.066;2023-05-07T10:26:51;23.75;;;22.25;;
7985;SDS011;4038;42.612;23.066;2023-05-07T10:34:54;23.40;;;21.80;;
7985;SDS011;4038;42.612;23.066;2023-05-07T10:37:21;24.13;;;22.50;;
7985;SDS011;4038;42.612;23.066;2023-05-07T10:39:48;23.52;;;21.75;;
7985;SDS011;4038;42.612;23.066;2023-05-07T10:42:14;23.92;;;22.13;;
7985;SDS011;4038;42.612;23.066;2023-05-07T10:44:40;25.30;;;23.50;;
7985;SDS011;4038;42.612;23.066;2023-05-07T10:50:20;27.95;;;25.83;;
7985;SDS011;4038;42.612;23.066;2023-05-07T10:52:40;31.17;;;28.52;;
7985;SDS011;4038;42.612;23.066;2023-05-07T10:57:44;23.85;;;22.27;;
7985;SDS011;4038;42.612;23.066;2023-05-07T11:00:55;24.13;;;22.23;;
7985;SDS011;4038;42.612;23.066;2023-05-07T11:05:24;24.35;;;22.65;;
7985;SDS011;4038;42.612;23.066;2023-05-07T11:08:03;23.50;;;21.90;;
7985;SDS011;4038;42.612;23.066;2023-05-07T11:10:49;23.83;;;22.13;;
7985;SDS011;4038;42.612;23.066;2023-05-07T11:13:16;24.08;;;22.38;;
7985;SDS011;4038;42.612;23.066;2023-05-07T11:15:45;22.40;;;20.80;;
7985;SDS011;4038;42.612;23.066;2023-05-07T11:18:13;24.50;;;22.83;;
7985;SDS011;4038;42.612;23.066;2023-05-07T11:25:59;24.83;;;23.13;;
7985;SDS011;4038;42.612;23.066;2023-05-07T11:28:29;23.77;;;22.08;;
7985;SDS011;4038;42.612;23.066;2023-05-07T11:30:55;23.55;;;21.80;;
7985;SDS011;4038;42.612;23.066;2023-05-07T11:33:22;24.35;;;22.73;;
7985;SDS011;4038;42.612;23.066;2023-05-07T11:35:50;25.50;;;23.60;;
7985;SDS011;4038;42.612;23.066;2023-05-07T11:38:18;23.88;;;22.17;;
7985;SDS011;4038;42.612;23.066;2023-05-07T11:40:54;23.98;;;22.38;;
7985;SDS011;4038;42.612;23.066;2023-05-07T11:43:21;23.27;;;21.67;;
7985;SDS011;4038;42.612;23.066;2023-05-07T11:45:46;23.92;;;22.38;;
7985;SDS011;4038;42.612;23.066;2023-05-07T11:48:13;23.10;;;21.60;;
7985;SDS011;4038;42.612;23.066;2023-05-07T11:50:51;23.55;;;21.95;;
7985;SDS011;4038;42.612;23.066;2023-05-07T11:53:18;23.35;;;21.85;;
7985;SDS011;4038;42.612;23.066;2023-05-07T11:55:45;24.48;;;22.85;;
7985;SDS011;4038;42.612;23.066;2023-05-07T11:58:11;23.30;;;21.70;;
7985;SDS011;4038;42.612;23.066;2023-05-07T12:00:48;27.33;;;25.35;;
7985;SDS011;4038;42.612;23.066;2023-05-07T12:03:17;27.58;;;25.67;;
7985;SDS011;4038;42.612;23.066;2023-05-07T12:05:43;25.23;;;23.52;;
7985;SDS011;4038;42.612;23.066;2023-05-07T12:08:13;24.05;;;22.45;;
7985;SDS011;4038;42.612;23.066;2023-05-07T12:10:42;24.17;;;22.17;;
7985;SDS011;4038;42.612;23.066;2023-05-07T12:13:15;25.25;;;23.27;;
7985;SDS011;4038;42.612;23.066;2023-05-07T12:15:45;24.58;;;22.75;;
7985;SDS011;4038;42.612;23.066;2023-05-07T12:18:11;23.48;;;21.98;;
7985;SDS011;4038;42.612;23.066;2023-05-07T12:20:38;24.40;;;22.70;;
7985;SDS011;4038;42.612;23.066;2023-05-07T12:23:04;24.73;;;23.13;;
7985;SDS011;4038;42.612;23.066;2023-05-07T12:25:40;25.63;;;23.77;;
7985;SDS011;4038;42.612;23.066;2023-05-07T12:28:20;25.23;;;23.63;;
7985;SDS011;4038;42.612;23.066;2023-05-07T12:30:46;26.42;;;24.55;;
7985;SDS011;4038;42.612;23.066;2023-05-07T12:33:16;24.00;;;22.17;;
7985;SDS011;4038;42.612;23.066;2023-05-07T12:35:43;24.20;;;22.60;;
7985;SDS011;4038;42.612;23.066;2023-05-07T12:38:12;24.92;;;22.95;;
7985;SDS011;4038;42.612;23.066;2023-05-07T12:40:43;23.92;;;22.13;;
7985;SDS011;4038;42.612;23.066;2023-05-07T12:45:42;24.02;;;22.33;;
7985;SDS011;4038;42.612;23.066;2023-05-07T12:48:11;24.30;;;22.33;;
7985;SDS011;4038;42.612;23.066;2023-05-07T12:50:37;25.15;;;23.08;;
7985;SDS011;4038;42.612;23.066;2023-05-07T12:53:03;24.17;;;22.17;;
7985;SDS011;4038;42.612;23.066;2023-05-07T12:55:34;23.83;;;21.95;;
7985;SDS011;4038;42.612;23.066;2023-05-07T12:58:19;25.98;;;24.10;;
7985;SDS011;4038;42.612;23.066;2023-05-07T13:00:49;23.92;;;22.13;;
7985;SDS011;4038;42.612;23.066;2023-05-07T13:03:22;23.88;;;22.02;;
7985;SDS011;4038;42.612;23.066;2023-05-07T13:05:49;23.20;;;21.63;;
7985;SDS011;4038;42.612;23.066;2023-05-07T13:11:10;23.92;;;22.10;;
7985;SDS011;4038;42.612;23.066;2023-05-07T13:13:37;23.38;;;21.77;;
7985;SDS011;4038;42.612;23.066;2023-05-07T13:16:07;23.25;;;21.42;;
7985;SDS011;4038;42.612;23.066;2023-05-07T13:18:33;24.70;;;22.92;;
7985;SDS011;4038;42.612;23.066;2023-05-07T13:21:00;23.35;;;21.83;;
7985;SDS011;4038;42.612;23.066;2023-05-07T13:23:26;25.02;;;23.00;;
7985;SDS011;4038;42.612;23.066;2023-05-07T13:25:52;24.17;;;22.58;;
7985;SDS011;4038;42.612;23.066;2023-05-07T13:28:19;23.65;;;21.83;;
7985;SDS011;4038;42.612;23.066;2023-05-07T13:30:45;24.58;;;23.08;;
7985;SDS011;4038;42.612;23.066;2023-05-07T13:33:11;23.38;;;21.70;;
7985;SDS011;4038;42.612;23.066;2023-05-07T13:35:37;22.98;;;21.48;;
7985;SDS011;4038;42.612;23.066;2023-05-07T13:38:02;23.38;;;21.83;;
7985;SDS011;4038;42.612;23.066;2023-05-07T13:40:28;23.38;;;21.65;;
7985;SDS011;4038;42.612;23.066;2023-05-07T13:42:53;23.65;;;22.02;;
7985;SDS011;4038;42.612;23.066;2023-05-07T13:45:19;22.95;;;21.25;;
7985;SDS011;4038;42.612;23.066;2023-05-07T13:47:45;24.05;;;21.50;;
7985;SDS011;4038;42.612;23.066;2023-05-07T13:50:11;23.58;;;21.77;;
7985;SDS011;4038;42.612;23.066;2023-05-07T13:52:39;23.73;;;22.13;;
7985;SDS011;4038;42.612;23.066;2023-05-07T13:55:06;23.70;;;22.08;;
7985;SDS011;4038;42.612;23.066;2023-05-07T13:57:32;22.67;;;21.08;;
7985;SDS011;4038;42.612;23.066;2023-05-07T13:59:57;22.80;;;21.13;;
7985;SDS011;4038;42.612;23.066;2023-05-07T14:02:23;24.30;;;22.67;;
7985;SDS011;4038;42.612;23.066;2023-05-07T14:04:48;23.33;;;21.63;;
7985;SDS011;4038;42.612;23.066;2023-05-07T14:07:13;23.08;;;21.55;;
7985;SDS011;4038;42.612;23.066;2023-05-07T14:09:39;23.25;;;21.50;;
7985;SDS011;4038;42.612;23.066;2023-05-07T14:12:05;22.90;;;21.30;;
7985;SDS011;4038;42.612;23.066;2023-05-07T14:14:31;25.00;;;22.85;;
7985;SDS011;4038;42.612;23.066;2023-05-07T14:16:56;23.33;;;21.73;;
7985;SDS011;4038;42.612;23.066;2023-05-07T14:19:22;23.58;;;21.60;;
7985;SDS011;4038;42.612;23.066;2023-05-07T14:21:48;26.73;;;24.83;;
7985;SDS011;4038;42.612;23.066;2023-05-07T14:24:13;24.73;;;22.92;;
7985;SDS011;4038;42.612;23.066;2023-05-07T14:26:39;23.63;;;21.92;;
7985;SDS011;4038;42.612;23.066;2023-05-07T14:29:04;24.20;;;22.17;;
7985;SDS011;4038;42.612;23.066;2023-05-07T14:31:30;23.38;;;21.67;;
7985;SDS011;4038;42.612;23.066;2023-05-07T14:33:55;23.98;;;21.88;;
7985;SDS011;4038;42.612;23.066;2023-05-07T14:36:22;23.10;;;21.50;;
7985;SDS011;4038;42.612;23.066;2023-05-07T14:38:51;24.52;;;22.60;;
7985;SDS011;4038;42.612;23.066;2023-05-07T14:41:18;23.33;;;21.48;;
7985;SDS011;4038;42.612;23.066;2023-05-07T14:43:44;23.95;;;21.92;;
7985;SDS011;4038;42.612;23.066;2023-05-07T14:46:14;23.23;;;21.52;;
7985;SDS011;4038;42.612;23.066;2023-05-07T14:48:41;22.85;;;21.13;;
7985;SDS011;4038;42.612;23.066;2023-05-07T14:51:06;23.38;;;21.60;;
7985;SDS011;4038;42.612;23.066;2023-05-07T14:53:32;23.20;;;21.38;;